KLBL/LBL METAR and TAF weather

Enter ICAO airport designator
Station Type Date Time Source
KLBL METAR 2021/09/23 23:56 UTC NOAA

KLBL 232356Z AUTO 18012KT 10SM CLR 28/03 A2997 RMK AO2 SLP123 T02780033 10311 20278 55004


Station Type Date Time Source
KLBL Decoded METAR 2021/09/23 23:56 UTC NOAA

Liberal, Liberal Municipal Airport, KS, United States (KLBL) 37-03N 100-58W
Sep 23, 2021 - 07:56 PM EDT / 2021.09.23 2356 UTC
Wind: from the S (180 degrees) at 14 MPH (12 KT):0
Visibility: 10 mile(s):0
Sky conditions: clear
Temperature: 82.0 F (27.8 C)
Dew Point: 37.9 F (3.3 C)
Relative Humidity: 20%
Pressure (altimeter): 29.97 in. Hg (1014 hPa)
Pressure tendency: 0.01 inches (0.4 hPa) lower than three hours ago
ob: KLBL 232356Z AUTO 18012KT 10SM CLR 28/03 A2997 RMK AO2 SLP123 T02780033 10311 20278 55004
cycle: 0

Station Type Date Time Source
KLBL TAF 2021/09/23 18:21 UTC NOAA

TAF KLBL 231720Z 2318/2418 20015G25KT P6SM SKC
FM240000 21010KT P6SM BKN250

Example: see airport list